Time;durP1;ratioP1;P1;durP2;ratioP2;P2;SDS_P1;SDS_P2;PMS_P1;PMS_P2;Temp;Humidity;BMP_temperature;BMP_pressure;BME280_temperature;BME280_humidity;BME280_pressure;Samples;Min_cycle;Max_cycle;Signal;HPM_P1;HPM_P2
2022/08/20 00:02:09;;;;;;;;;;;;;;;22.62;38.20;101109.16;5047563;28;20426;-81
2022/08/20 00:04:37;;;;;;;;;;;;;;;22.61;38.03;101111.09;5048040;28;19960;-81
2022/08/20 00:07:07;;;;;;;;;;;;;;;22.60;38.06;101103.78;5044739;28;20343;-80
2022/08/20 00:09:35;;;;;;;;;;;;;;;22.59;38.01;101104.84;5044531;28;19925;-81
2022/08/20 00:12:04;;;;;;;;;;;;;;;22.59;38.13;101106.81;5047272;28;19939;-80
2022/08/20 00:14:32;;;;;;;;;;;;;;;22.58;38.13;101110.66;5058585;28;19978;-80
2022/08/20 00:17:01;;;;;;;;;;;;;;;22.57;38.39;101100.56;5045757;28;19931;-81
2022/08/20 00:19:29;;;;;;;;;;;;;;;22.56;38.41;101098.84;5047344;28;19936;-80
2022/08/20 00:21:57;;;;;;;;;;;;;;;22.53;38.25;101100.13;5049355;28;20284;-79
2022/08/20 00:24:40;;;;;;;;;;;;;;;22.54;38.67;101096.25;5027417;28;19947;-78
2022/08/20 00:27:10;;;;;;;;;;;;;;;22.53;38.54;101097.31;5066571;28;20415;-77
2022/08/20 00:29:37;;;;;;;;;;;;;;;22.53;38.91;101108.47;5059293;28;19932;-76
2022/08/20 00:32:06;;;;;;;;;;;;;;;22.51;38.95;101105.00;5053128;28;20386;-78
2022/08/20 00:34:42;;;;;;;;;;;;;;;22.50;38.69;101111.66;5052780;28;19968;-77
2022/08/20 00:37:10;;;;;;;;;;;;;;;22.49;39.08;101109.94;5046291;28;20389;-77
2022/08/20 00:39:42;;;;;;;;;;;;;;;22.46;38.85;101110.34;5046128;28;20011;-76
2022/08/20 00:42:11;;;;;;;;;;;;;;;22.45;39.13;101111.41;5048654;28;19963;-78
2022/08/20 00:44:44;;;;;;;;;;;;;;;22.44;39.20;101103.25;5046420;28;19924;-78
2022/08/20 00:47:12;;;;;;;;;;;;;;;22.39;39.29;101098.31;5044841;28;20371;-80
2022/08/20 00:49:40;;;;;;;;;;;;;;;22.36;39.12;101104.28;5048762;28;19960;-80
2022/08/20 00:52:11;;;;;;;;;;;;;;;22.33;39.55;101109.44;5060207;28;19932;-79
2022/08/20 00:54:43;;;;;;;;;;;;;;;22.28;39.50;101099.72;5044235;28;19928;-77
2022/08/20 00:57:13;;;;;;;;;;;;;;;22.23;39.61;101102.28;5049167;28;19994;-76
2022/08/20 00:59:42;;;;;;;;;;;;;;;22.18;39.63;101107.59;5062428;28;19929;-76
2022/08/20 01:02:12;;;;;;;;;;;;;;;22.15;40.02;101102.47;5045927;28;20315;-75
2022/08/20 01:04:42;;;;;;;;;;;;;;;22.11;40.14;101094.69;5048864;28;19934;-76
2022/08/20 01:07:11;;;;;;;;;;;;;;;22.08;40.06;101093.19;5048261;28;19929;-76
2022/08/20 01:09:38;;;;;;;;;;;;;;;22.05;40.05;101095.50;5045656;28;19932;-76
2022/08/20 01:12:28;;;;;;;;;;;;;;;22.00;40.39;101093.34;5042892;28;19924;-77
2022/08/20 01:14:57;;;;;;;;;;;;;;;21.96;40.40;101096.72;5046213;28;20332;-77
2022/08/20 01:17:27;;;;;;;;;;;;;;;21.94;40.54;101090.50;5042446;28;19931;-77
2022/08/20 01:19:58;;;;;;;;;;;;;;;21.90;40.54;101098.38;5046862;28;19925;-77
2022/08/20 01:25:22;;;;;;;;;;;;;;;21.82;40.77;101104.13;5040080;28;19929;-78
2022/08/20 01:27:53;;;;;;;;;;;;;;;21.79;40.48;101104.50;5039342;28;19929;-78
2022/08/20 01:30:23;;;;;;;;;;;;;;;21.76;40.90;101099.34;5041507;28;19956;-79
2022/08/20 01:32:51;;;;;;;;;;;;;;;21.73;41.12;101103.41;5046679;28;19924;-79
2022/08/20 01:35:20;;;;;;;;;;;;;;;21.71;41.04;101110.22;5045939;28;20007;-79
2022/08/20 01:37:48;;;;;;;;;;;;;;;21.68;41.00;101107.88;5044352;28;19964;-79
2022/08/20 01:40:23;;;;;;;;;;;;;;;21.67;40.79;101106.13;5036850;28;19929;-80
2022/08/20 01:42:53;;;;;;;;;;;;;;;21.63;41.13;101104.81;5042349;28;20379;-80
2022/08/20 01:45:26;;;;;;;;;;;;;;;21.62;41.11;101105.84;5054336;28;19999;-79
2022/08/20 01:47:58;;;;;;;;;;;;;;;21.58;41.32;101108.19;5036281;28;19932;-80
2022/08/20 01:50:29;;;;;;;;;;;;;;;21.56;41.41;101107.53;5048008;28;19925;-80
2022/08/20 01:52:59;;;;;;;;;;;;;;;21.53;41.12;101108.78;5045070;28;19964;-80
2022/08/20 01:55:27;;;;;;;;;;;;;;;21.51;41.63;101110.94;5048454;28;19979;-80
2022/08/20 01:57:56;;;;;;;;;;;;;;;21.51;41.53;101124.00;5048313;28;19925;-80
2022/08/20 02:00:24;;;;;;;;;;;;;;;21.48;41.63;101116.88;5046677;28;19940;-81
2022/08/20 02:02:53;;;;;;;;;;;;;;;21.47;41.50;101117.09;5045606;28;19924;-80
2022/08/20 02:05:21;;;;;;;;;;;;;;;21.45;41.44;101128.41;5045890;28;19931;-80
2022/08/20 02:07:49;;;;;;;;;;;;;;;21.44;41.55;101125.81;5046309;28;19924;-81
2022/08/20 02:10:18;;;;;;;;;;;;;;;21.43;41.89;101115.78;5048164;28;19956;-80
2022/08/20 02:12:46;;;;;;;;;;;;;;;21.41;42.00;101115.09;5037719;28;19925;-81
2022/08/20 02:15:16;;;;;;;;;;;;;;;21.40;41.87;101118.94;5064453;28;19978;-80
2022/08/20 02:18:03;;;;;;;;;;;;;;;21.38;42.07;101116.34;5046237;28;19931;-80
2022/08/20 02:20:35;;;;;;;;;;;;;;;21.37;41.58;101114.63;5067706;28;19933;-80
2022/08/20 02:23:04;;;;;;;;;;;;;;;21.35;41.66;101118.69;5040367;28;19962;-80
2022/08/20 02:25:33;;;;;;;;;;;;;;;21.33;42.05;101116.09;5041471;28;20303;-80
2022/08/20 02:28:03;;;;;;;;;;;;;;;21.33;41.76;101118.03;5038211;28;19955;-80
2022/08/20 02:30:35;;;;;;;;;;;;;;;21.31;41.94;101126.56;5047908;28;19979;-79
2022/08/20 02:33:05;;;;;;;;;;;;;;;21.30;41.61;101112.84;5041945;28;20349;-79
2022/08/20 02:35:34;;;;;;;;;;;;;;;21.27;41.73;101107.69;5045866;28;20334;-79
2022/08/20 02:38:02;;;;;;;;;;;;;;;21.26;42.06;101108.75;5047687;28;19933;-79
2022/08/20 02:40:30;;;;;;;;;;;;;;;21.24;41.82;101117.25;5051172;28;19925;-79
2022/08/20 02:42:59;;;;;;;;;;;;;;;21.22;41.74;101116.59;5049874;28;19925;-79
2022/08/20 02:45:27;;;;;;;;;;;;;;;21.21;42.22;101117.66;5047918;28;19936;-79
2022/08/20 02:47:57;;;;;;;;;;;;;;;21.20;42.16;101115.06;5048006;28;20303;-79
2022/08/20 02:50:26;;;;;;;;;;;;;;;21.17;41.89;101119.13;5052199;28;19970;-79
2022/08/20 02:52:54;;;;;;;;;;;;;;;21.15;42.45;101124.00;5049012;28;19925;-79
2022/08/20 02:55:23;;;;;;;;;;;;;;;21.12;42.43;101122.47;5049732;28;19966;-79
2022/08/20 02:57:55;;;;;;;;;;;;;;;21.12;42.47;101129.97;5051039;28;19925;-79
2022/08/20 03:00:26;;;;;;;;;;;;;;;21.10;42.58;101118.19;5049619;28;19940;-79
2022/08/20 03:02:54;;;;;;;;;;;;;;;21.09;42.42;101124.81;5048085;28;19925;-79
2022/08/20 03:05:23;;;;;;;;;;;;;;;21.07;42.55;101113.88;5049565;28;19924;-79
2022/08/20 03:07:55;;;;;;;;;;;;;;;21.05;42.22;101121.53;5049083;28;19964;-79
2022/08/20 03:10:24;;;;;;;;;;;;;;;21.04;42.47;101113.38;5037173;28;19929;-79
2022/08/20 03:12:52;;;;;;;;;;;;;;;21.02;42.24;101108.03;5057991;28;19991;-79
2022/08/20 03:15:20;;;;;;;;;;;;;;;21.02;42.85;101104.41;5050288;28;19932;-79
2022/08/20 03:17:49;;;;;;;;;;;;;;;21.02;42.65;101112.75;5059261;28;19925;-80
2022/08/20 03:20:17;;;;;;;;;;;;;;;21.00;42.41;101101.81;5046447;28;19928;-80
2022/08/20 03:22:52;;;;;;;;;;;;;;;20.99;42.54;101104.78;5045241;28;19931;-80
2022/08/20 03:25:20;;;;;;;;;;;;;;;20.98;42.49;101103.06;5051189;28;19931;-80
2022/08/20 03:27:48;;;;;;;;;;;;;;;20.98;42.83;101105.84;5041247;28;19937;-80
2022/08/20 03:30:23;;;;;;;;;;;;;;;20.97;43.01;101115.25;5049259;28;20201;-80
2022/08/20 03:32:51;;;;;;;;;;;;;;;20.96;42.96;101110.72;5042872;28;19978;-80
2022/08/20 03:35:21;;;;;;;;;;;;;;;20.95;42.56;101114.56;5051986;28;19935;-80
2022/08/20 03:37:53;;;;;;;;;;;;;;;20.93;42.75;101103.66;5065359;28;19932;-80
2022/08/20 03:40:23;;;;;;;;;;;;;;;20.92;42.89;101109.41;5051065;28;19925;-79
2022/08/20 03:42:51;;;;;;;;;;;;;;;20.92;43.10;101106.63;5050673;28;20027;-80
2022/08/20 03:45:20;;;;;;;;;;;;;;;20.90;43.16;101098.47;5039509;28;19932;-80
2022/08/20 03:47:50;;;;;;;;;;;;;;;20.89;42.95;101085.63;5051835;28;19948;-80
2022/08/20 03:50:19;;;;;;;;;;;;;;;20.88;42.91;101092.25;5052962;28;19924;-80
2022/08/20 03:52:53;;;;;;;;;;;;;;;20.88;43.30;101092.25;5053715;28;19972;-81
2022/08/20 03:55:22;;;;;;;;;;;;;;;20.87;43.03;101086.88;5064570;28;19928;-81
2022/08/20 03:57:51;;;;;;;;;;;;;;;20.86;43.06;101094.34;5042324;28;20441;-81
2022/08/20 04:00:21;;;;;;;;;;;;;;;20.85;43.39;101092.66;5043774;28;19924;-81
2022/08/20 04:02:49;;;;;;;;;;;;;;;20.86;43.01;101099.09;5048491;28;19925;-81
2022/08/20 04:05:17;;;;;;;;;;;;;;;20.84;43.46;101099.28;5042282;28;19926;-80
2022/08/20 04:07:45;;;;;;;;;;;;;;;20.85;43.19;101106.56;5061378;28;19925;-80
2022/08/20 04:10:15;;;;;;;;;;;;;;;20.83;43.70;101103.09;5042713;28;19929;-81
2022/08/20 04:12:43;;;;;;;;;;;;;;;20.83;43.40;101105.88;5046584;28;19928;-80
2022/08/20 04:15:21;;;;;;;;;;;;;;;20.82;43.26;101118.06;5048156;28;20291;-80
2022/08/20 04:17:50;;;;;;;;;;;;;;;20.82;43.33;101115.28;5048450;28;20414;-80
2022/08/20 04:20:21;;;;;;;;;;;;;;;20.82;43.38;101119.97;5044206;28;19948;-81
2022/08/20 04:22:50;;;;;;;;;;;;;;;20.80;43.45;101125.75;5067516;28;19937;-80
2022/08/20 04:25:28;;;;;;;;;;;;;;;20.80;43.35;101131.31;5043461;28;19928;-80
2022/08/20 04:28:04;;;;;;;;;;;;;;;20.81;43.52;101134.94;5055315;28;19924;-80
2022/08/20 04:30:32;;;;;;;;;;;;;;;20.79;43.53;101132.34;5042278;28;19925;-79
2022/08/20 04:33:01;;;;;;;;;;;;;;;20.78;43.36;101133.41;5043620;28;20003;-78
2022/08/20 04:35:29;;;;;;;;;;;;;;;20.78;43.48;101141.75;5045954;28;20269;-77
2022/08/20 04:37:59;;;;;;;;;;;;;;;20.75;43.69;101145.81;5044281;28;19952;-76
2022/08/20 04:43:14;;;;;;;;;;;;;;;20.72;44.07;101134.19;5044843;28;19928;-77
2022/08/20 04:45:43;;;;;;;;;;;;;;;20.69;44.18;101135.47;5058359;28;19948;-78
2022/08/20 04:48:12;;;;;;;;;;;;;;;20.68;44.02;101144.88;5047875;28;19952;-79
2022/08/20 04:50:43;;;;;;;;;;;;;;;20.65;43.72;101147.16;5046387;28;19932;-79
2022/08/20 04:53:13;;;;;;;;;;;;;;;20.64;44.02;101148.22;5036595;28;19932;-82
2022/08/20 04:55:43;;;;;;;;;;;;;;;20.61;44.18;101146.66;5067113;28;19925;-83
2022/08/20 04:58:12;;;;;;;;;;;;;;;20.58;44.09;101152.59;5044139;28;20380;-85
2022/08/20 05:00:41;;;;;;;;;;;;;;;20.57;44.22;101148.09;5048226;28;19932;-86
2022/08/20 05:03:09;;;;;;;;;;;;;;;20.55;44.55;101147.41;5051469;28;19929;-81
2022/08/20 05:05:37;;;;;;;;;;;;;;;20.53;44.50;101135.63;5057836;28;19932;-78
2022/08/20 05:08:05;;;;;;;;;;;;;;;20.52;44.13;101147.81;5045609;28;19932;-77
2022/08/20 05:10:48;;;;;;;;;;;;;;;20.47;44.36;101139.19;5045493;28;19936;-75
2022/08/20 05:13:22;;;;;;;;;;;;;;;20.46;44.51;101140.22;5047281;28;19933;-73
2022/08/20 05:15:55;;;;;;;;;;;;;;;20.43;44.30;101140.63;5046308;28;20387;-73
2022/08/20 05:18:24;;;;;;;;;;;;;;;20.42;44.19;101140.81;5062784;28;19935;-73
2022/08/20 05:20:52;;;;;;;;;;;;;;;20.39;44.45;101137.34;5055143;28;19929;-74
2022/08/20 05:23:22;;;;;;;;;;;;;;;20.37;44.58;101139.47;5047829;28;20362;-76
2022/08/20 05:25:52;;;;;;;;;;;;;;;20.34;44.49;101145.41;5042578;28;19928;-84
2022/08/20 05:28:22;;;;;;;;;;;;;;;20.33;44.38;101151.16;5048897;28;19925;-82
2022/08/20 05:30:51;;;;;;;;;;;;;;;20.29;45.14;101145.13;5049143;28;20341;-81
2022/08/20 05:33:20;;;;;;;;;;;;;;;20.29;45.02;101163.72;5046233;28;19932;-81
2022/08/20 05:35:51;;;;;;;;;;;;;;;20.26;45.11;101156.63;5048719;28;19924;-80
2022/08/20 05:38:21;;;;;;;;;;;;;;;20.26;45.11;101161.34;5061604;28;19931;-79
2022/08/20 05:40:49;;;;;;;;;;;;;;;20.26;45.08;101164.09;5046060;28;19982;-78
2022/08/20 05:43:18;;;;;;;;;;;;;;;20.25;45.23;101159.59;5060333;28;19925;-78
2022/08/20 05:45:51;;;;;;;;;;;;;;;20.24;44.94;101164.28;5043604;28;19933;-79
2022/08/20 05:48:24;;;;;;;;;;;;;;;20.25;44.98;101159.59;5044389;28;20228;-78
2022/08/20 05:50:53;;;;;;;;;;;;;;;20.25;45.47;101165.16;5048196;28;19931;-78
2022/08/20 05:53:22;;;;;;;;;;;;;;;20.25;45.65;101170.72;5036787;28;19925;-78
2022/08/20 05:55:51;;;;;;;;;;;;;;;20.25;45.41;101171.59;5043902;28;19971;-78
2022/08/20 05:58:23;;;;;;;;;;;;;;;20.26;45.68;101181.66;5045862;28;19956;-78
2022/08/20 06:00:52;;;;;;;;;;;;;;;20.27;45.29;101182.50;5044556;28;20326;-78
2022/08/20 06:06:07;;;;;;;;;;;;;;;20.29;45.21;101186.81;5072341;28;19925;-77
2022/08/20 06:08:55;;;;;;;;;;;;;;;20.30;45.14;101187.66;5047877;28;20295;-74
2022/08/20 06:11:23;;;;;;;;;;;;;;;20.30;45.23;101182.97;5061763;28;19929;-72
2022/08/20 06:13:53;;;;;;;;;;;;;;;20.32;45.42;101180.88;5048854;28;19925;-72
2022/08/20 06:16:21;;;;;;;;;;;;;;;20.32;45.50;101180.88;5042684;28;19971;-71
2022/08/20 06:18:55;;;;;;;;;;;;;;;20.32;45.10;101180.88;5064242;28;19928;-71
2022/08/20 06:21:25;;;;;;;;;;;;;;;20.33;45.18;101190.09;5045162;28;20446;-72
2022/08/20 06:23:53;;;;;;;;;;;;;;;20.32;45.56;101188.34;5063671;28;19955;-72
2022/08/20 06:26:27;;;;;;;;;;;;;;;20.31;45.57;101190.28;5047887;28;19932;-72
2022/08/20 06:28:59;;;;;;;;;;;;;;;20.30;45.08;101188.53;5044523;28;19925;-71
2022/08/20 06:31:27;;;;;;;;;;;;;;;20.29;45.27;101175.69;5042167;28;19932;-72
2022/08/20 06:33:55;;;;;;;;;;;;;;;20.29;45.05;101185.94;5045030;28;19924;-73
2022/08/20 06:36:23;;;;;;;;;;;;;;;20.28;45.10;101190.63;5048413;28;20023;-72
2022/08/20 06:38:53;;;;;;;;;;;;;;;20.27;45.51;101182.50;5043132;28;19952;-72
2022/08/20 06:41:21;;;;;;;;;;;;;;;20.27;45.58;101188.06;5041801;28;19925;-72
2022/08/20 06:44:05;;;;;;;;;;;;;;;20.27;45.18;101196.41;5046842;28;19947;-73
2022/08/20 06:46:34;;;;;;;;;;;;;;;20.27;45.94;101194.50;5040134;28;20153;-72
2022/08/20 06:49:03;;;;;;;;;;;;;;;20.29;45.40;101191.50;5040152;28;20387;-73
2022/08/20 06:51:31;;;;;;;;;;;;;;;20.30;45.80;101194.09;5050533;28;19924;-72
2022/08/20 06:53:59;;;;;;;;;;;;;;;20.32;45.97;101202.25;5039426;28;19929;-72
2022/08/20 06:56:27;;;;;;;;;;;;;;;20.33;45.91;101202.06;5040668;28;19936;-72
2022/08/20 06:58:55;;;;;;;;;;;;;;;20.35;45.66;101193.53;5044877;28;19931;-72
2022/08/20 07:01:25;;;;;;;;;;;;;;;20.37;45.38;101208.97;5061099;28;19928;-72
2022/08/20 07:03:53;;;;;;;;;;;;;;;20.38;45.84;101207.03;5041516;28;19929;-69
2022/08/20 07:06:23;;;;;;;;;;;;;;;20.40;45.45;101211.38;5042045;28;20394;-69
2022/08/20 07:08:51;;;;;;;;;;;;;;;20.42;45.34;101213.09;5045468;28;19925;-69
2022/08/20 07:11:20;;;;;;;;;;;;;;;20.44;45.63;101211.88;5045470;28;20282;-68
2022/08/20 07:13:55;;;;;;;;;;;;;;;20.46;45.60;101214.44;5047478;28;19925;-69
2022/08/20 07:16:25;;;;;;;;;;;;;;;20.48;45.74;101226.22;5044540;28;19929;-69
2022/08/20 07:18:53;;;;;;;;;;;;;;;20.51;45.51;101228.63;5045950;28;19931;-69
2022/08/20 07:21:21;;;;;;;;;;;;;;;20.52;45.54;101220.13;5038011;28;20027;-68
2022/08/20 07:23:49;;;;;;;;;;;;;;;20.54;45.35;101222.69;5036619;28;19931;-69
2022/08/20 07:26:17;;;;;;;;;;;;;;;20.56;45.67;101226.13;5050633;28;19928;-70
2022/08/20 07:28:45;;;;;;;;;;;;;;;20.59;45.37;101231.38;5045126;28;19928;-69
2022/08/20 07:34:03;;;;;;;;;;;;;;;20.61;45.13;101232.88;5048366;28;19931;-68
2022/08/20 07:36:32;;;;;;;;;;;;;;;20.63;45.35;101235.47;5048834;28;20367;-69
2022/08/20 07:39:01;;;;;;;;;;;;;;;20.64;45.51;101238.06;5041772;28;19933;-69
2022/08/20 07:41:33;;;;;;;;;;;;;;;20.67;45.33;101236.81;5044684;28;19932;-70
2022/08/20 07:44:01;;;;;;;;;;;;;;;20.69;45.46;101243.06;5050754;28;19964;-69
2022/08/20 07:46:30;;;;;;;;;;;;;;;20.71;45.63;101247.38;5049332;28;19933;-70
2022/08/20 07:48:58;;;;;;;;;;;;;;;20.74;45.69;101241.44;5043723;28;19925;-69
2022/08/20 07:51:28;;;;;;;;;;;;;;;20.78;45.22;101248.31;5040855;28;19955;-71
2022/08/20 07:53:58;;;;;;;;;;;;;;;20.82;45.32;101246.03;5050388;28;19987;-71
2022/08/20 07:56:27;;;;;;;;;;;;;;;20.85;45.83;101254.00;5055015;28;19936;-71
2022/08/20 07:58:57;;;;;;;;;;;;;;;20.88;45.76;101258.28;5045482;28;19925;-71
2022/08/20 08:01:31;;;;;;;;;;;;;;;20.91;45.35;101261.56;5047471;28;19928;-71
2022/08/20 08:04:02;;;;;;;;;;;;;;;20.97;45.70;101260.78;5043423;28;19931;-71
2022/08/20 08:06:34;;;;;;;;;;;;;;;21.03;45.38;101261.94;5050343;28;19924;-71
2022/08/20 08:09:11;;;;;;;;;;;;;;;21.07;45.46;101255.81;5044012;28;19925;-70
2022/08/20 08:11:41;;;;;;;;;;;;;;;21.13;45.41;101256.94;5064775;28;20031;-70
2022/08/20 08:14:17;;;;;;;;;;;;;;;21.18;45.50;101260.03;5047212;28;19925;-70
2022/08/20 08:16:46;;;;;;;;;;;;;;;21.22;45.29;101258.56;5048104;28;19929;-71
2022/08/20 08:19:15;;;;;;;;;;;;;;;21.27;45.27;101255.25;5046404;28;19960;-70
2022/08/20 08:21:45;;;;;;;;;;;;;;;21.30;44.88;101257.59;5049079;28;19936;-70
2022/08/20 08:24:16;;;;;;;;;;;;;;;21.33;44.75;101262.81;5058779;28;19925;-69
2022/08/20 08:26:51;;;;;;;;;;;;;;;21.33;44.66;101260.88;5057828;28;19924;-70
2022/08/20 08:29:20;;;;;;;;;;;;;;;21.33;44.48;101266.44;5054905;28;20292;-70
2022/08/20 08:31:48;;;;;;;;;;;;;;;21.33;44.56;101273.94;5060484;28;19924;-71
2022/08/20 08:34:18;;;;;;;;;;;;;;;21.32;44.06;101269.41;5022998;28;19929;-70
2022/08/20 08:36:49;;;;;;;;;;;;;;;21.30;43.96;101271.53;5044866;28;19929;-70
2022/08/20 08:39:18;;;;;;;;;;;;;;;21.27;44.04;101271.94;5044428;28;19925;-71
2022/08/20 08:41:48;;;;;;;;;;;;;;;21.26;44.08;101275.78;5059750;28;19936;-72
2022/08/20 08:44:22;;;;;;;;;;;;;;;21.22;44.32;101282.75;5040360;28;19948;-72
2022/08/20 08:46:52;;;;;;;;;;;;;;;21.21;44.34;101281.00;5039691;28;19925;-72
2022/08/20 08:49:23;;;;;;;;;;;;;;;21.21;44.28;101279.09;5043040;28;19925;-71
2022/08/20 08:52:05;;;;;;;;;;;;;;;21.20;44.24;101285.72;5043393;28;19964;-71
2022/08/20 08:54:35;;;;;;;;;;;;;;;21.21;44.41;101289.34;5045079;28;19991;-71
2022/08/20 08:57:06;;;;;;;;;;;;;;;21.21;44.36;101286.56;5047504;28;20350;-72
2022/08/20 08:59:34;;;;;;;;;;;;;;;21.21;44.33;101300.50;5042522;28;19925;-72
2022/08/20 09:02:24;;;;;;;;;;;;;;;21.20;44.01;101301.53;5044709;28;19932;-72
2022/08/20 09:04:55;;;;;;;;;;;;;;;21.19;43.64;101297.06;5044032;28;20386;-74
2022/08/20 09:07:26;;;;;;;;;;;;;;;21.17;43.78;101301.97;5045654;28;20100;-72
2022/08/20 09:09:54;;;;;;;;;;;;;;;21.14;43.49;101300.41;5046742;28;19929;-72
2022/08/20 09:12:23;;;;;;;;;;;;;;;21.13;43.73;101309.81;5050069;28;19967;-71
2022/08/20 09:14:52;;;;;;;;;;;;;;;21.10;43.81;101308.31;5046941;28;19925;-71
2022/08/20 09:17:21;;;;;;;;;;;;;;;21.08;43.61;101309.53;5051903;28;20378;-71
2022/08/20 09:19:51;;;;;;;;;;;;;;;21.06;43.71;101312.50;5049618;28;19929;-72
2022/08/20 09:22:21;;;;;;;;;;;;;;;21.06;44.16;101320.00;5048854;28;19982;-72
2022/08/20 09:24:50;;;;;;;;;;;;;;;21.04;43.69;101320.19;5049005;28;19936;-71
2022/08/20 09:27:18;;;;;;;;;;;;;;;21.04;43.64;101317.41;5048613;28;19928;-72
2022/08/20 09:29:46;;;;;;;;;;;;;;;21.04;44.12;101322.97;5044297;28;19925;-71
2022/08/20 09:32:17;;;;;;;;;;;;;;;21.04;43.76;101328.53;5050719;28;20090;-72
2022/08/20 09:34:50;;;;;;;;;;;;;;;21.04;44.03;101322.09;5042455;28;19936;-72
2022/08/20 09:37:19;;;;;;;;;;;;;;;21.04;43.90;101328.53;5049862;28;20307;-71
2022/08/20 09:39:47;;;;;;;;;;;;;;;21.04;43.76;101330.44;5041063;28;19929;-72
2022/08/20 09:42:19;;;;;;;;;;;;;;;21.03;43.80;101332.38;5046564;28;20431;-73
2022/08/20 09:44:48;;;;;;;;;;;;;;;21.01;43.56;101331.72;5047266;28;19929;-71
2022/08/20 09:47:16;;;;;;;;;;;;;;;21.01;43.75;101328.06;5044828;28;19924;-72
2022/08/20 09:49:44;;;;;;;;;;;;;;;21.00;43.38;101337.47;5043129;28;19944;-71
2022/08/20 09:52:20;;;;;;;;;;;;;;;20.99;43.99;101330.16;5044533;28;19960;-71
2022/08/20 09:54:48;;;;;;;;;;;;;;;20.97;44.00;101326.72;5046408;28;19979;-71
2022/08/20 09:57:19;;;;;;;;;;;;;;;20.97;43.62;101330.34;5043504;28;19925;-73
2022/08/20 09:59:52;;;;;;;;;;;;;;;20.95;43.53;101329.69;5043873;28;19925;-73
2022/08/20 10:02:20;;;;;;;;;;;;;;;20.95;43.49;101326.03;5045040;28;19933;-74
2022/08/20 10:04:48;;;;;;;;;;;;;;;20.95;43.54;101329.69;5039451;28;19928;-73
2022/08/20 10:07:18;;;;;;;;;;;;;;;20.93;43.53;101331.81;5044546;28;19929;-73
2022/08/20 10:09:46;;;;;;;;;;;;;;;20.94;44.01;101333.53;5044269;28;20335;-73
2022/08/20 10:12:14;;;;;;;;;;;;;;;20.94;43.82;101327.97;5047245;28;19936;-73
2022/08/20 10:14:44;;;;;;;;;;;;;;;20.94;43.75;101338.25;5047628;28;19964;-72
2022/08/20 10:17:12;;;;;;;;;;;;;;;20.95;43.74;101337.16;5044367;28;19944;-72
2022/08/20 10:19:40;;;;;;;;;;;;;;;20.94;43.84;101341.03;5045392;28;19987;-71
2022/08/20 10:22:08;;;;;;;;;;;;;;;20.95;44.03;101345.50;5042343;28;20289;-71
2022/08/20 10:24:36;;;;;;;;;;;;;;;20.94;44.06;101341.88;5044873;28;20023;-75
2022/08/20 10:27:04;;;;;;;;;;;;;;;20.95;44.10;101338.03;5047222;28;19956;-75
2022/08/20 10:29:32;;;;;;;;;;;;;;;20.96;43.73;101330.53;5045272;28;19968;-75
2022/08/20 10:32:10;;;;;;;;;;;;;;;20.98;43.50;101343.22;5037303;28;19925;-74
2022/08/20 10:34:39;;;;;;;;;;;;;;;20.98;43.70;101342.34;5046668;28;19933;-74
2022/08/20 10:37:08;;;;;;;;;;;;;;;20.98;44.06;101339.56;5048611;28;19924;-77
2022/08/20 10:39:36;;;;;;;;;;;;;;;20.99;43.64;101344.94;5044071;28;19932;-72
2022/08/20 10:42:04;;;;;;;;;;;;;;;21.01;43.53;101347.53;5040851;28;19928;-74
2022/08/20 10:44:33;;;;;;;;;;;;;;;21.01;43.59;101345.63;5046073;28;20079;-72
2022/08/20 10:47:14;;;;;;;;;;;;;;;21.03;43.75;101359.31;5045356;28;19925;-74
2022/08/20 10:49:42;;;;;;;;;;;;;;;21.04;43.79;101355.50;5045215;28;20287;-74
2022/08/20 10:52:10;;;;;;;;;;;;;;;21.05;44.05;101355.31;5040258;28;19924;-74
2022/08/20 10:54:41;;;;;;;;;;;;;;;21.08;43.82;101356.84;5042291;28;19931;-74
2022/08/20 10:57:09;;;;;;;;;;;;;;;21.10;44.10;101350.06;5045747;28;19971;-74
2022/08/20 10:59:38;;;;;;;;;;;;;;;21.13;43.77;101352.44;5047564;28;19931;-74
2022/08/20 11:02:06;;;;;;;;;;;;;;;21.17;44.14;101346.50;5043479;28;19937;-74
2022/08/20 11:04:36;;;;;;;;;;;;;;;21.20;43.74;101351.66;5048958;28;20316;-74
2022/08/20 11:07:10;;;;;;;;;;;;;;;21.24;43.92;101353.88;5049700;28;19940;-74
2022/08/20 11:09:39;;;;;;;;;;;;;;;21.29;44.05;101361.66;5048559;28;20019;-74
2022/08/20 11:12:09;;;;;;;;;;;;;;;21.34;43.88;101348.06;5051022;28;19932;-70
2022/08/20 11:14:37;;;;;;;;;;;;;;;21.38;43.69;101355.81;5049142;28;20386;-72
2022/08/20 11:17:06;;;;;;;;;;;;;;;21.42;43.92;101351.59;5051680;28;19935;-72
2022/08/20 11:19:40;;;;;;;;;;;;;;;21.47;43.71;101356.56;5041409;28;19925;-74
2022/08/20 11:22:08;;;;;;;;;;;;;;;21.53;43.85;101355.78;5049455;28;19976;-73
2022/08/20 11:24:37;;;;;;;;;;;;;;;21.58;43.91;101355.22;5046362;28;19928;-73
2022/08/20 11:27:09;;;;;;;;;;;;;;;21.65;44.08;101351.47;5047502;28;19979;-72
2022/08/20 11:29:38;;;;;;;;;;;;;;;21.73;44.22;101356.06;5041572;28;19994;-70
2022/08/20 11:32:06;;;;;;;;;;;;;;;21.79;43.89;101352.47;5044955;28;19933;-71
2022/08/20 11:34:34;;;;;;;;;;;;;;;21.87;43.80;101349.56;5047395;28;19924;-72
2022/08/20 11:37:03;;;;;;;;;;;;;;;21.94;43.81;101352.44;5064954;28;19932;-72
2022/08/20 11:39:31;;;;;;;;;;;;;;;22.03;43.48;101348.47;5062455;28;20272;-72
2022/08/20 11:42:00;;;;;;;;;;;;;;;22.11;43.81;101348.34;5066591;28;19925;-72
2022/08/20 11:44:29;;;;;;;;;;;;;;;22.19;43.26;101351.88;5047654;28;19924;-71
2022/08/20 11:47:02;;;;;;;;;;;;;;;22.29;43.46;101354.34;5043837;28;19925;-71
2022/08/20 11:49:30;;;;;;;;;;;;;;;22.41;43.54;101357.47;5049325;28;19929;-71
2022/08/20 11:51:58;;;;;;;;;;;;;;;22.49;43.24;101349.81;5051152;28;20000;-70
2022/08/20 11:54:30;;;;;;;;;;;;;;;22.60;43.27;101349.28;5047233;28;19931;-70
2022/08/20 11:56:59;;;;;;;;;;;;;;;22.73;43.19;101347.69;5051067;28;19964;-72
2022/08/20 11:59:27;;;;;;;;;;;;;;;22.83;42.87;101349.06;5046704;28;19932;-71
2022/08/20 12:01:57;;;;;;;;;;;;;;;22.94;42.67;101350.41;5051051;28;19931;-72
2022/08/20 12:04:30;;;;;;;;;;;;;;;23.06;42.75;101348.78;5042180;28;20137;-71
2022/08/20 12:07:07;;;;;;;;;;;;;;;23.15;42.54;101341.97;5044909;28;19925;-72
2022/08/20 12:09:37;;;;;;;;;;;;;;;23.26;42.40;101344.19;5039655;28;19925;-72
2022/08/20 12:12:18;;;;;;;;;;;;;;;23.36;42.19;101338.22;5041005;28;19953;-72
2022/08/20 12:14:46;;;;;;;;;;;;;;;23.44;42.08;101338.06;5043931;28;19924;-72
2022/08/20 12:17:16;;;;;;;;;;;;;;;23.54;41.79;101332.09;5036302;28;19933;-72
2022/08/20 12:19:45;;;;;;;;;;;;;;;23.63;41.63;101345.69;5044552;28;20339;-72
2022/08/20 12:22:13;;;;;;;;;;;;;;;23.71;41.68;101341.84;5046276;28;20422;-71
2022/08/20 12:24:54;;;;;;;;;;;;;;;23.80;41.30;101331.34;5046360;28;19928;-72
2022/08/20 12:27:23;;;;;;;;;;;;;;;23.88;41.04;101332.03;5050544;28;19968;-73
2022/08/20 12:29:52;;;;;;;;;;;;;;;23.96;41.05;101331.84;5043188;28;19944;-72
2022/08/20 12:32:21;;;;;;;;;;;;;;;24.03;41.06;101323.47;5046802;28;19925;-72
2022/08/20 12:34:54;;;;;;;;;;;;;;;24.10;41.16;101321.53;5050261;28;19960;-72
2022/08/20 12:37:27;;;;;;;;;;;;;;;24.17;40.93;101324.31;5050233;28;19928;-73
2022/08/20 12:39:57;;;;;;;;;;;;;;;24.23;40.79;101329.97;5045175;28;19925;-73
2022/08/20 12:42:26;;;;;;;;;;;;;;;24.31;40.59;101334.47;5039519;28;19974;-73
2022/08/20 12:44:54;;;;;;;;;;;;;;;24.36;40.28;101330.00;5048128;28;19947;-73
2022/08/20 12:47:23;;;;;;;;;;;;;;;24.40;40.16;101328.47;5046246;28;20003;-73
2022/08/20 12:49:52;;;;;;;;;;;;;;;24.45;40.16;101328.72;5047846;28;20345;-73
2022/08/20 12:52:21;;;;;;;;;;;;;;;24.50;40.17;101319.66;5047386;28;19925;-71
2022/08/20 12:54:50;;;;;;;;;;;;;;;24.56;39.62;101323.56;5059865;28;19932;-71
2022/08/20 12:57:27;;;;;;;;;;;;;;;24.60;39.81;101324.81;5064094;28;19925;-73
2022/08/20 12:59:57;;;;;;;;;;;;;;;24.66;39.75;101321.16;5048538;28;20367;-73
2022/08/20 13:02:26;;;;;;;;;;;;;;;24.69;39.35;101320.72;5044644;28;19932;-74